createdAt,value
2023-04-01T00:02:24.830Z,78.59
2023-04-01T00:06:33.489Z,79.04
2023-04-01T00:10:41.481Z,79.46
2023-04-01T00:14:49.479Z,78.78
2023-04-01T00:18:56.958Z,79.41
2023-04-01T00:23:05.856Z,79.32
2023-04-01T00:27:13.464Z,79.68
2023-04-01T00:31:21.774Z,79.29
2023-04-01T00:35:30.269Z,79.12
2023-04-01T00:39:39.800Z,79.36
2023-04-01T00:43:48.848Z,79.28
2023-04-01T00:47:56.726Z,79.62
2023-04-01T00:52:07.054Z,79.35
2023-04-01T00:56:18.898Z,79.16
2023-04-01T01:00:27.371Z,79.13
2023-04-01T01:04:37.235Z,79.06
2023-04-01T01:09:13.154Z,79.03
2023-04-01T01:13:23.478Z,79.18
2023-04-01T01:17:47.758Z,79.36
2023-04-01T01:22:09.789Z,79.69
2023-04-01T01:26:42.950Z,79.60
2023-04-01T01:30:55.996Z,79.82
2023-04-01T01:35:15.713Z,79.79
2023-04-01T01:39:30.329Z,79.66
2023-04-01T01:43:42.443Z,79.88
2023-04-01T01:47:51.772Z,79.38
2023-04-01T01:51:59.965Z,79.65
2023-04-01T01:56:09.035Z,79.64
2023-04-01T02:00:19.392Z,79.57
2023-04-01T02:04:28.275Z,79.40
2023-04-01T02:08:39.213Z,79.63
2023-04-01T02:12:48.616Z,79.47
2023-04-01T02:16:59.897Z,79.25
2023-04-01T02:21:08.983Z,80.01
2023-04-01T02:25:21.336Z,79.76
2023-04-01T02:29:29.770Z,79.47
2023-04-01T02:33:38.469Z,79.51
2023-04-01T02:37:48.027Z,79.34
2023-04-01T02:41:56.477Z,79.16
2023-04-01T02:46:05.081Z,79.56
2023-04-01T02:50:14.762Z,79.64
2023-04-01T02:54:23.332Z,79.11
2023-04-01T02:58:31.328Z,79.21
2023-04-01T03:02:39.372Z,78.73
2023-04-01T03:06:48.364Z,79.21
2023-04-01T03:10:58.486Z,79.30
2023-04-01T03:15:10.677Z,79.73
2023-04-01T03:19:19.183Z,79.49
2023-04-01T03:23:27.077Z,79.78
2023-04-01T03:27:35.297Z,79.82
2023-04-01T03:31:42.852Z,80.30
2023-04-01T03:35:53.331Z,80.28
2023-04-01T03:40:02.008Z,80.31
2023-04-01T03:44:10.103Z,80.65
2023-04-01T03:48:17.664Z,80.45
2023-04-01T03:52:25.339Z,80.36
2023-04-01T03:56:32.844Z,81.07
2023-04-01T04:00:41.157Z,80.90
2023-04-01T04:04:49.489Z,81.23
2023-04-01T04:08:57.725Z,81.42
2023-04-01T04:13:05.094Z,80.91
2023-04-01T04:17:17.557Z,81.68
2023-04-01T04:21:25.075Z,81.74
2023-04-01T04:25:33.914Z,81.64
2023-04-01T04:29:41.817Z,81.89
2023-04-01T04:33:50.171Z,81.76
2023-04-01T04:37:58.308Z,81.81
2023-04-01T04:42:06.257Z,82.11
2023-04-01T04:46:14.882Z,82.04
2023-04-01T04:50:22.452Z,82.14
2023-04-01T04:54:29.978Z,82.24
2023-04-01T04:58:37.909Z,82.03
2023-04-01T05:02:45.811Z,82.26
2023-04-01T05:06:54.254Z,82.25
2023-04-01T05:11:02.304Z,82.21
2023-04-01T05:15:11.894Z,82.59
2023-04-01T05:19:20.196Z,82.71
2023-04-01T05:23:28.113Z,82.57
2023-04-01T05:27:36.952Z,82.70
2023-04-01T05:31:44.646Z,83.00
2023-04-01T05:35:54.975Z,82.77
2023-04-01T05:40:02.935Z,82.97
2023-04-01T05:44:13.789Z,83.45
2023-04-01T05:48:23.164Z,82.51
2023-04-01T05:52:33.038Z,83.07
2023-04-01T05:56:41.286Z,82.71
2023-04-01T06:01:02.234Z,82.87
2023-04-01T06:05:21.203Z,83.04
2023-04-01T06:09:31.767Z,82.89
2023-04-01T06:13:53.817Z,82.79
2023-04-01T06:18:11.931Z,83.00
2023-04-01T06:22:30.549Z,83.52
2023-04-01T06:26:42.266Z,83.28
2023-04-01T06:30:52.802Z,83.74
2023-04-01T06:35:11.117Z,83.61
2023-04-01T06:39:45.055Z,83.61
2023-04-01T06:44:02.807Z,83.88
2023-04-01T06:48:35.548Z,83.96
2023-04-01T06:52:50.227Z,84.09
2023-04-01T06:57:03.618Z,83.80
2023-04-01T07:01:15.190Z,83.77
2023-04-01T07:05:23.937Z,83.87
2023-04-01T07:09:35.510Z,84.24
2023-04-01T07:13:47.915Z,84.44
2023-04-01T07:17:58.577Z,84.26
2023-04-01T07:22:11.301Z,83.76
2023-04-01T07:26:22.998Z,84.38
2023-04-01T07:30:46.945Z,84.42
2023-04-01T07:35:04.229Z,84.23
2023-04-01T07:39:22.084Z,84.06
2023-04-01T07:43:55.318Z,83.97
2023-04-01T07:48:12.056Z,84.10
2023-04-01T07:52:24.521Z,83.28
2023-04-01T07:56:37.028Z,83.87
2023-04-01T08:00:50.649Z,83.57
2023-04-01T08:05:05.617Z,83.43
2023-04-01T08:09:18.660Z,83.17
2023-04-01T08:13:36.139Z,82.72
2023-04-01T08:17:50.693Z,82.63
2023-04-01T08:22:06.314Z,82.24
2023-04-01T08:26:18.362Z,81.71
2023-04-01T08:30:29.459Z,81.99
2023-04-01T08:34:41.774Z,81.23
2023-04-01T08:38:53.777Z,80.70
2023-04-01T08:43:10.553Z,79.97
2023-04-01T08:47:50.033Z,79.22
2023-04-01T08:52:23.220Z,79.50
2023-04-01T08:56:36.632Z,79.67
2023-04-01T09:00:49.225Z,78.73
2023-04-01T09:05:21.523Z,77.92
2023-04-01T09:10:00.873Z,77.40
2023-04-01T09:14:34.024Z,76.59
2023-04-01T09:19:09.966Z,76.44
2023-04-01T09:23:49.896Z,76.73
2023-04-01T09:28:08.651Z,76.25
2023-04-01T09:32:47.081Z,76.06
2023-04-01T09:37:03.707Z,75.58
2023-04-01T09:41:17.314Z,75.54
2023-04-01T09:45:37.465Z,74.94
2023-04-01T09:50:06.669Z,74.55
2023-04-01T09:54:28.546Z,75.06
2023-04-01T09:59:07.411Z,75.03
2023-04-01T10:03:37.992Z,74.57
2023-04-01T10:08:13.427Z,74.46
2023-04-01T10:12:54.393Z,74.94
2023-04-01T10:17:30.576Z,75.69
2023-04-01T10:22:04.190Z,76.59
2023-04-01T10:26:47.196Z,77.10
2023-04-01T10:31:37.160Z,77.58
2023-04-01T10:36:13.879Z,78.06
2023-04-01T10:40:40.276Z,78.38
2023-04-01T10:45:26.143Z,78.43
2023-04-01T10:49:49.549Z,78.43
2023-04-01T10:54:20.319Z,78.33
2023-04-01T10:59:01.718Z,78.06
2023-04-01T11:03:53.525Z,77.59
2023-04-01T11:08:20.560Z,77.24
2023-04-01T11:13:05.818Z,77.47
2023-04-01T11:17:36.549Z,76.87
2023-04-01T11:21:59.345Z,76.18
2023-04-01T11:26:19.482Z,75.42
2023-04-01T11:30:46.606Z,74.43
2023-04-01T11:35:06.184Z,74.18
2023-04-01T11:39:30.274Z,73.22
2023-04-01T11:43:41.631Z,72.84
2023-04-01T11:48:00.813Z,72.75
2023-04-01T11:52:24.744Z,73.13
2023-04-01T11:56:45.107Z,73.36
2023-04-01T12:01:00.876Z,74.33
2023-04-01T12:05:27.226Z,74.37
2023-04-01T12:09:42.791Z,74.08
2023-04-01T12:13:56.687Z,73.18
2023-04-01T12:18:12.001Z,72.60
2023-04-01T12:22:40.662Z,72.15
2023-04-01T12:27:01.569Z,71.22
2023-04-01T12:31:25.146Z,70.49
2023-04-01T12:35:37.045Z,70.30
2023-04-01T12:40:15.460Z,69.09
2023-04-01T12:44:46.429Z,67.86
2023-04-01T12:49:23.011Z,67.60
2023-04-01T12:53:52.313Z,68.34
2023-04-01T12:58:30.001Z,69.00
2023-04-01T13:02:48.509Z,71.64
2023-04-01T13:07:13.554Z,72.99
2023-04-01T13:11:31.224Z,73.48
2023-04-01T13:15:41.658Z,75.05
2023-04-01T13:20:04.333Z,78.10
2023-04-01T13:24:23.718Z,79.50
2023-04-01T13:28:33.828Z,79.34
2023-04-01T13:32:47.706Z,78.54
2023-04-01T13:37:05.404Z,78.94
2023-04-01T13:41:24.160Z,79.29
2023-04-01T13:45:41.581Z,79.13
2023-04-01T13:50:32.152Z,79.37
2023-04-01T13:55:17.098Z,78.78
2023-04-01T13:59:42.537Z,78.10
2023-04-01T14:04:04.616Z,77.50
2023-04-01T14:08:23.272Z,77.46
2023-04-01T14:12:35.003Z,76.82
2023-04-01T14:17:03.771Z,75.03
2023-04-01T14:21:23.041Z,74.34
2023-04-01T14:25:55.798Z,73.31
2023-04-01T14:30:14.942Z,72.35
2023-04-01T14:34:33.806Z,71.78
2023-04-01T14:38:53.483Z,71.02
2023-04-01T14:43:36.093Z,70.99
2023-04-01T14:47:51.572Z,69.63
2023-04-01T14:51:59.559Z,70.42
2023-04-01T14:56:07.755Z,70.45
2023-04-01T15:00:20.140Z,69.08
2023-04-01T15:04:48.536Z,68.67
2023-04-01T15:09:01.413Z,69.33
2023-04-01T15:13:17.747Z,69.37
2023-04-01T15:17:36.706Z,68.77
2023-04-01T15:21:56.305Z,70.10
2023-04-01T15:26:18.728Z,69.42
2023-04-01T15:30:46.845Z,69.78
2023-04-01T15:35:01.341Z,70.33
2023-04-01T15:39:17.892Z,71.71
2023-04-01T15:43:33.257Z,72.90
2023-04-01T15:47:47.522Z,73.40
2023-04-01T15:52:06.141Z,74.04
2023-04-01T15:56:22.875Z,74.76
2023-04-01T16:00:32.112Z,75.27
2023-04-01T16:05:02.576Z,75.00
2023-04-01T16:09:25.438Z,74.76
2023-04-01T16:13:42.831Z,74.87
2023-04-01T16:18:04.274Z,75.59
2023-04-01T16:22:17.286Z,75.94
2023-04-01T16:26:29.364Z,76.75
2023-04-01T16:30:47.651Z,76.93
2023-04-01T16:35:06.511Z,77.06
2023-04-01T16:39:42.249Z,77.47
2023-04-01T16:43:54.949Z,78.35
2023-04-01T16:48:12.695Z,78.94
2023-04-01T16:52:35.438Z,79.48
2023-04-01T16:56:48.853Z,79.71
2023-04-01T17:01:01.630Z,79.46
2023-04-01T17:05:14.495Z,80.05
2023-04-01T17:09:42.840Z,79.98
2023-04-01T17:13:58.876Z,80.14
2023-04-01T17:18:11.461Z,80.24
2023-04-01T17:22:28.449Z,80.32
2023-04-01T17:26:44.424Z,80.07
2023-04-01T17:30:59.967Z,80.36
2023-04-01T17:35:10.987Z,80.19
2023-04-01T17:39:31.884Z,79.97
2023-04-01T17:43:45.568Z,79.97
2023-04-01T17:48:01.460Z,79.76
2023-04-01T17:52:17.778Z,79.57
2023-04-01T17:56:35.816Z,79.48
2023-04-01T18:00:57.497Z,79.34
2023-04-01T18:05:27.949Z,79.48
2023-04-01T18:09:42.172Z,79.18
2023-04-01T18:14:02.486Z,78.74
2023-04-01T18:18:20.458Z,79.06
2023-04-01T18:22:38.730Z,79.04
2023-04-01T18:26:49.410Z,78.89
2023-04-01T18:30:59.422Z,78.93
2023-04-01T18:35:27.574Z,79.34
2023-04-01T18:39:39.737Z,79.23
2023-04-01T18:43:59.603Z,79.06
2023-04-01T18:48:16.762Z,78.87
2023-04-01T18:52:30.564Z,78.88
2023-04-01T18:56:40.109Z,79.12
2023-04-01T19:00:51.036Z,79.22
2023-04-01T19:05:06.457Z,79.37
2023-04-01T19:09:25.420Z,79.94
2023-04-01T19:13:39.860Z,80.14
2023-04-01T19:18:18.204Z,80.26
2023-04-01T19:22:41.540Z,80.45
2023-04-01T19:26:57.551Z,81.06
2023-04-01T19:31:13.762Z,81.46
2023-04-01T19:35:32.146Z,81.83
2023-04-01T19:39:55.677Z,81.86
2023-04-01T19:44:17.782Z,82.05
2023-04-01T19:48:40.483Z,81.92
2023-04-01T19:52:50.879Z,82.13
2023-04-01T19:57:07.074Z,81.86
2023-04-01T20:01:20.755Z,82.10
2023-04-01T20:05:47.081Z,82.18
2023-04-01T20:10:03.277Z,82.04
2023-04-01T20:14:27.741Z,82.27
2023-04-01T20:18:46.791Z,82.86
2023-04-01T20:23:07.619Z,82.68
2023-04-01T20:27:23.850Z,83.38
2023-04-01T20:31:35.199Z,83.11
2023-04-01T20:35:52.196Z,83.13
2023-04-01T20:40:28.806Z,83.62
2023-04-01T20:44:41.382Z,83.39
2023-04-01T20:49:24.527Z,83.54
2023-04-01T20:53:39.768Z,83.56
2023-04-01T20:57:55.212Z,83.84
2023-04-01T21:02:13.633Z,83.90
2023-04-01T21:06:36.393Z,83.71
2023-04-01T21:10:49.196Z,83.89
2023-04-01T21:15:20.318Z,83.73
2023-04-01T21:19:42.948Z,84.00
2023-04-01T21:24:12.520Z,84.06
2023-04-01T21:28:43.083Z,84.47
2023-04-01T21:33:17.893Z,84.40
2023-04-01T21:37:57.782Z,84.27
2023-04-01T21:42:25.309Z,84.09
2023-04-01T21:47:03.170Z,84.06
2023-04-01T21:51:38.160Z,84.38
2023-04-01T21:56:36.530Z,84.43
2023-04-01T22:00:48.048Z,84.34
2023-04-01T22:05:01.224Z,84.28
2023-04-01T22:09:15.065Z,84.60
2023-04-01T22:13:29.837Z,84.58
2023-04-01T22:17:45.169Z,84.48
2023-04-01T22:22:02.738Z,84.59
2023-04-01T22:26:16.168Z,84.71
2023-04-01T22:30:27.971Z,84.62
2023-04-01T22:34:43.113Z,84.36
2023-04-01T22:39:11.353Z,84.52
2023-04-01T22:43:23.782Z,84.47
2023-04-01T22:47:40.707Z,84.46
2023-04-01T22:51:52.861Z,84.78
2023-04-01T22:56:04.514Z,84.42
2023-04-01T23:00:19.893Z,84.61
2023-04-01T23:04:32.481Z,84.73
2023-04-01T23:08:52.902Z,84.59
2023-04-01T23:13:03.762Z,84.75
2023-04-01T23:17:20.030Z,84.51
2023-04-01T23:21:32.420Z,84.56
2023-04-01T23:25:47.708Z,84.89
2023-04-01T23:29:55.633Z,84.72
2023-04-01T23:34:05.717Z,84.64
2023-04-01T23:38:12.991Z,84.63
2023-04-01T23:42:24.115Z,84.95
2023-04-01T23:46:34.613Z,84.88
2023-04-01T23:50:42.858Z,84.82
2023-04-01T23:54:54.992Z,85.01
2023-04-01T23:59:02.960Z,85.15
